EmailTwitter


Observations de surface / France / LFMP (07747)

Régions: Québec | Canada | États-Unis | Europe | France | UK | Ailleurs
Station
Affichage
Infos & localisation pour LFMP (07747) | Aide pour décoder les METARs

Observations prises le 2021-03-05 à 04H30 UTC à PERPIGNAN/RIVESA, FR (LFMP)

Etat du ciel: partiellement nuageux.

Température: 9.0 Celsius

Point de rosée: 7.0 Celsius

Humidité relative: 87%

Vents: Ouest à 4 km/h ou 2 noeuds.

Pression au niveau moyen de la mer: 101.80 kilopascals.

Visibilité horizontale: 4.97 milles terrestres ou 7.95 kilomètres.

Hauteur du plafond: 3048 mètres ( 10000 pieds ).

Observation METAR:

LFMP 050430Z AUTO 28002KT 8000 BKN100 09/07 Q1018 TEMPO 2000 BR OVC003=